Time;durP1;ratioP1;P1;durP2;ratioP2;P2;SDS_P1;SDS_P2;PMS_P1;PMS_P2;Temp;Humidity;BMP_temperature;BMP_pressure;BME280_temperature;BME280_humidity;BME280_pressure;Samples;Min_cycle;Max_cycle;Signal;HPM_P1;HPM_P2
2021/05/22 00:00:14;;;;;;;4.82;1.80;;;;;;;10.17;57.32;98984.44;8068243;35;20788;-74
2021/05/22 00:05:17;;;;;;;3.33;1.63;;;;;;;10.13;57.34;98977.72;8069641;35;20225;-74
2021/05/22 00:10:20;;;;;;;2.47;1.60;;;;;;;10.07;57.13;98986.41;8069127;35;21039;-74
2021/05/22 00:15:23;;;;;;;2.45;1.00;;;;;;;10.13;57.14;98977.72;8037395;35;20155;-74
2021/05/22 00:20:26;;;;;;;1.75;1.40;;;;;;;9.92;57.50;98988.78;8056303;35;20481;-79
2021/05/22 00:25:29;;;;;;;2.33;1.17;;;;;;;10.01;57.19;98981.63;8057220;35;20440;-74
2021/05/22 00:30:33;;;;;;;2.15;1.30;;;;;;;10.01;57.40;98987.00;8073936;35;20511;-74
2021/05/22 00:35:35;;;;;;;5.78;1.50;;;;;;;9.90;57.57;98974.66;8062908;35;20155;-74
2021/05/22 00:40:38;;;;;;;3.05;1.30;;;;;;;9.91;57.49;98977.22;8058740;35;20837;-73
2021/05/22 00:45:43;;;;;;;3.25;1.10;;;;;;;9.64;58.29;98963.84;8054654;35;20680;-74
2021/05/22 00:50:47;;;;;;;2.70;1.30;;;;;;;9.73;58.21;98968.28;8054445;35;20435;-74
2021/05/22 00:55:49;;;;;;;2.45;1.55;;;;;;;9.61;58.70;98966.84;8052434;35;20191;-74
2021/05/22 01:00:56;;;;;;;4.45;1.58;;;;;;;9.60;58.87;98973.19;8049378;35;20438;-74
2021/05/22 01:06:09;;;;;;;1.60;1.25;;;;;;;9.60;58.71;98971.38;8046193;35;20155;-74
2021/05/22 01:11:17;;;;;;;2.17;1.50;;;;;;;9.53;59.20;98970.28;8047367;35;20483;-73
2021/05/22 01:16:21;;;;;;;2.33;1.40;;;;;;;9.33;59.95;98966.91;8046805;35;20205;-74
2021/05/22 01:21:25;;;;;;;1.52;1.40;;;;;;;9.34;59.79;98965.88;8024815;35;20495;-74
2021/05/22 01:26:49;;;;;;;3.50;1.25;;;;;;;9.41;60.36;98963.47;8048196;35;20291;-74
2021/05/22 01:31:52;;;;;;;1.45;1.27;;;;;;;9.26;60.60;98974.66;8028591;35;20427;-73
2021/05/22 01:36:55;;;;;;;3.42;1.58;;;;;;;9.10;61.09;98963.78;8053624;35;20455;-73
2021/05/22 01:41:59;;;;;;;3.38;1.40;;;;;;;9.02;61.50;98969.91;8053031;35;20858;-73
2021/05/22 01:47:03;;;;;;;3.33;1.42;;;;;;;9.02;61.60;98963.66;8054375;35;20222;-73
2021/05/22 01:52:07;;;;;;;4.22;1.52;;;;;;;8.99;61.80;98964.81;8052712;35;20532;-74
2021/05/22 01:57:10;;;;;;;3.15;1.40;;;;;;;9.11;61.36;98965.47;8065362;35;20158;-73
2021/05/22 02:02:13;;;;;;;1.25;1.13;;;;;;;9.03;61.62;98962.69;8064068;35;20484;-74
2021/05/22 02:07:18;;;;;;;4.40;1.50;;;;;;;8.89;61.94;98950.66;8064885;35;21017;-74
2021/05/22 02:12:24;;;;;;;4.30;1.75;;;;;;;8.78;62.53;98945.50;8053693;35;20470;-74
2021/05/22 02:17:27;;;;;;;3.13;2.75;;;;;;;8.66;62.76;98946.66;8050003;35;20621;-74
2021/05/22 02:22:34;;;;;;;2.22;1.30;;;;;;;8.67;62.42;98954.53;8051848;35;20462;-74
2021/05/22 02:27:37;;;;;;;4.35;1.63;;;;;;;8.74;62.37;98934.22;8051758;35;20620;-74
2021/05/22 02:32:42;;;;;;;1.58;1.30;;;;;;;8.68;62.54;98934.81;8050059;35;20460;-74
2021/05/22 02:37:48;;;;;;;3.40;1.40;;;;;;;8.47;63.31;98932.34;8049106;35;21255;-73
2021/05/22 02:42:57;;;;;;;2.75;1.33;;;;;;;8.69;62.42;98927.63;8050633;35;20982;-74
2021/05/22 02:48:04;;;;;;;4.05;1.27;;;;;;;8.68;62.37;98933.97;8048843;35;21498;-73
2021/05/22 02:53:09;;;;;;;2.97;1.35;;;;;;;8.44;63.08;98924.56;8048367;35;21474;-74
2021/05/22 02:58:14;;;;;;;3.40;1.35;;;;;;;8.32;63.03;98933.78;8047950;35;20494;-73
2021/05/22 03:03:18;;;;;;;2.88;1.77;;;;;;;8.49;62.75;98938.41;8049294;35;20511;-74
2021/05/22 03:08:20;;;;;;;3.45;1.65;;;;;;;8.54;62.79;98933.47;8049738;35;20190;-74
2021/05/22 03:13:24;;;;;;;4.07;1.70;;;;;;;8.57;62.73;98913.59;8049881;35;20555;-74
2021/05/22 03:18:27;;;;;;;3.30;1.60;;;;;;;8.55;62.54;98918.25;8050836;35;20501;-73
2021/05/22 03:23:29;;;;;;;3.67;1.63;;;;;;;8.46;62.70;98916.44;8045499;35;20512;-74
2021/05/22 03:28:33;;;;;;;2.90;1.48;;;;;;;8.62;61.97;98914.00;8044051;35;20481;-74
2021/05/22 03:33:36;;;;;;;2.03;1.60;;;;;;;8.64;61.85;98919.19;8045393;35;20431;-74
2021/05/22 03:38:38;;;;;;;3.83;1.90;;;;;;;8.58;61.88;98915.25;8049021;35;20649;-74
2021/05/22 03:43:42;;;;;;;3.95;2.03;;;;;;;8.65;61.88;98907.50;8029431;35;20953;-73
2021/05/22 03:48:44;;;;;;;4.68;1.45;;;;;;;8.47;62.38;98908.25;8051509;35;20226;-74
2021/05/22 03:53:47;;;;;;;6.03;1.90;;;;;;;8.59;62.36;98901.75;8050129;35;20476;-73
2021/05/22 03:58:51;;;;;;;7.85;1.60;;;;;;;8.47;62.97;98908.25;8043078;35;20450;-73
2021/05/22 04:03:53;;;;;;;6.13;1.73;;;;;;;8.45;62.97;98914.72;8042712;35;20191;-73
2021/05/22 04:08:56;;;;;;;6.72;1.85;;;;;;;8.75;62.12;98917.19;8040941;35;21144;-74
2021/05/22 04:14:00;;;;;;;3.33;1.17;;;;;;;8.93;61.72;98914.53;8040806;35;21189;-74
2021/05/22 04:19:03;;;;;;;2.58;1.38;;;;;;;8.92;61.50;98907.50;8041356;35;20163;-73
2021/05/22 04:24:08;;;;;;;2.45;1.25;;;;;;;9.01;61.27;98903.06;8040104;35;20442;-74
2021/05/22 04:29:12;;;;;;;6.88;1.88;;;;;;;9.05;61.42;98899.97;8039645;35;20552;-73
2021/05/22 04:34:14;;;;;;;3.55;1.55;;;;;;;9.20;61.01;98907.47;8041885;35;20649;-73
2021/05/22 04:39:17;;;;;;;1.58;1.10;;;;;;;9.06;60.65;98898.13;8042904;35;20598;-73
2021/05/22 04:44:20;;;;;;;1.17;1.00;;;;;;;8.89;61.17;98902.44;8043489;35;20431;-73
2021/05/22 04:49:23;;;;;;;2.80;1.40;;;;;;;9.01;60.45;98895.03;8045923;35;20226;-73
2021/05/22 04:54:30;;;;;;;3.90;1.40;;;;;;;8.97;60.88;98901.72;8051791;35;20519;-74
2021/05/22 04:59:34;;;;;;;4.00;1.42;;;;;;;9.23;60.20;98883.88;8052761;35;20166;-74
2021/05/22 05:04:36;;;;;;;4.20;1.33;;;;;;;9.26;59.80;98912.22;8051949;35;20192;-74
2021/05/22 05:09:39;;;;;;;7.30;1.50;;;;;;;9.57;59.09;98915.38;8048346;35;20453;-74
2021/05/22 05:14:43;;;;;;;4.10;2.22;;;;;;;9.52;59.16;98898.91;8045626;35;20447;-73
2021/05/22 05:19:46;;;;;;;4.05;1.20;;;;;;;9.60;59.20;98903.47;8043529;35;20279;-74
2021/05/22 05:24:48;;;;;;;2.20;1.50;;;;;;;9.67;59.08;98893.84;8041590;35;20194;-74
2021/05/22 05:29:52;;;;;;;4.88;1.35;;;;;;;9.79;58.62;98900.66;8039855;35;21049;-74
2021/05/22 05:34:54;;;;;;;4.18;1.23;;;;;;;9.87;58.20;98895.38;8039821;35;20205;-74
2021/05/22 05:39:57;;;;;;;2.75;1.48;;;;;;;9.53;59.20;98883.66;8042017;35;20492;-73
2021/05/22 05:45:01;;;;;;;3.13;1.40;;;;;;;10.29;57.29;98908.06;8045838;35;22299;-73
2021/05/22 05:50:05;;;;;;;2.70;1.25;;;;;;;10.00;57.85;98900.31;8023976;35;21176;-73
2021/05/22 05:55:09;;;;;;;3.17;1.63;;;;;;;9.94;57.99;98904.47;8045454;35;20483;-74
2021/05/22 06:00:14;;;;;;;5.50;1.20;;;;;;;10.47;58.07;98908.00;8051039;35;20194;-73
2021/05/22 06:05:17;;;;;;;3.45;1.73;;;;;;;9.87;58.73;98897.19;8052020;35;20139;-73
2021/05/22 06:10:19;;;;;;;3.20;1.40;;;;;;;10.09;57.97;98922.69;8031491;35;20187;-73
2021/05/22 06:15:29;;;;;;;3.28;1.67;;;;;;;10.27;57.14;98925.34;8029666;35;20458;-73
2021/05/22 06:20:31;;;;;;;4.65;1.40;;;;;;;9.68;58.58;98904.41;8053857;35;20151;-73
2021/05/22 06:25:34;;;;;;;2.53;1.30;;;;;;;9.80;58.67;98896.97;8051899;35;20167;-72
2021/05/22 06:30:38;;;;;;;2.50;1.20;;;;;;;9.69;58.29;98906.09;8058856;35;20461;-72
2021/05/22 06:35:41;;;;;;;3.05;1.20;;;;;;;10.00;58.11;98904.84;8036428;35;20657;-73
2021/05/22 06:40:45;;;;;;;5.65;1.70;;;;;;;9.84;58.35;98889.44;8058782;35;20502;-72
2021/05/22 06:45:58;;;;;;;2.42;1.48;;;;;;;10.40;57.37;98912.34;8028098;35;20480;-72
2021/05/22 06:51:01;;;;;;;6.95;1.88;;;;;;;10.43;56.66;98916.53;8020268;35;20276;-72
2021/05/22 06:56:05;;;;;;;0.95;0.88;;;;;;;10.70;55.25;98928.94;8018038;35;20626;-73
2021/05/22 07:01:09;;;;;;;1.23;1.17;;;;;;;10.82;55.55;98903.47;8012481;35;20168;-72
2021/05/22 07:06:12;;;;;;;3.28;1.30;;;;;;;10.74;55.64;98908.81;8023466;35;20246;-72
2021/05/22 07:11:15;;;;;;;3.53;1.60;;;;;;;11.22;55.49;98905.47;8022389;35;20218;-73
2021/05/22 07:16:19;;;;;;;2.22;1.20;;;;;;;10.92;56.08;98912.25;8022420;35;20970;-73
2021/05/22 07:21:22;;;;;;;2.22;1.67;;;;;;;10.44;57.30;98911.00;8021599;35;20449;-73
2021/05/22 07:26:25;;;;;;;3.85;1.58;;;;;;;10.28;57.47;98945.78;8014725;35;20482;-73
2021/05/22 07:31:28;;;;;;;1.30;1.00;;;;;;;9.83;61.28;98922.63;8022752;35;20218;-73
2021/05/22 07:36:31;;;;;;;2.10;1.23;;;;;;;8.76;66.19;98959.00;8022355;35;20443;-73
2021/05/22 07:41:34;;;;;;;3.25;1.48;;;;;;;8.66;68.00;98941.28;8037851;35;20440;-73
2021/05/22 07:46:38;;;;;;;4.13;1.30;;;;;;;8.51;69.97;98965.03;8066728;35;20473;-74
2021/05/22 07:51:41;;;;;;;2.38;1.40;;;;;;;8.11;70.55;98992.81;8071811;35;20230;-75
2021/05/22 07:56:44;;;;;;;2.53;1.67;;;;;;;8.25;73.19;98954.91;8071757;35;21034;-75
2021/05/22 08:01:47;;;;;;;4.25;1.88;;;;;;;8.41;73.65;98967.69;8048082;35;20167;-74
2021/05/22 08:06:50;;;;;;;4.00;2.00;;;;;;;8.44;74.29;98956.69;8025704;35;20475;-74
2021/05/22 08:11:53;;;;;;;7.95;1.90;;;;;;;8.51;73.85;98971.22;8005211;35;20515;-74
2021/05/22 08:17:02;;;;;;;3.10;1.58;;;;;;;8.40;72.18;98950.78;8043606;35;20516;-73
2021/05/22 08:22:05;;;;;;;3.25;1.77;;;;;;;8.41;72.43;98956.97;8044276;35;20525;-73
2021/05/22 08:27:12;;;;;;;5.55;1.95;;;;;;;8.37;71.59;98972.50;8030506;35;20610;-73
2021/05/22 08:32:31;;;;;;;4.13;1.45;;;;;;;8.17;71.44;98957.44;8049042;35;20514;-73
2021/05/22 08:37:35;;;;;;;7.97;1.85;;;;;;;8.71;69.88;98958.59;8078423;35;20194;-73
2021/05/22 08:42:38;;;;;;;6.82;1.90;;;;;;;8.97;69.33;98972.19;8076046;35;20923;-73
2021/05/22 08:47:42;;;;;;;2.90;1.52;;;;;;;9.23;70.74;98966.94;8067625;35;20442;-73
2021/05/22 08:52:46;;;;;;;2.25;1.35;;;;;;;9.03;70.15;98989.47;8035349;35;20436;-73
2021/05/22 08:57:49;;;;;;;3.92;1.38;;;;;;;8.69;70.83;98981.16;8031962;35;21258;-73
2021/05/22 09:02:54;;;;;;;4.10;1.42;;;;;;;8.29;71.23;99025.88;8032200;35;20199;-74
2021/05/22 09:08:00;;;;;;;3.15;1.38;;;;;;;8.47;73.57;98993.06;8032917;35;20183;-73
2021/05/22 09:13:06;;;;;;;2.10;1.40;;;;;;;8.22;73.61;99003.34;8035119;35;20152;-73
2021/05/22 09:18:13;;;;;;;2.75;1.38;;;;;;;8.40;72.94;98998.13;8027321;35;20231;-73
2021/05/22 09:23:19;;;;;;;2.67;1.45;;;;;;;8.51;73.56;99000.66;8025563;35;20536;-72
2021/05/22 09:28:24;;;;;;;1.65;1.55;;;;;;;8.79;73.89;99019.44;8042195;35;20460;-72
2021/05/22 09:33:30;;;;;;;1.70;1.00;;;;;;;8.28;73.10;99026.00;8042524;35;20492;-72
2021/05/22 09:38:35;;;;;;;1.92;1.10;;;;;;;8.74;70.58;99013.69;8037934;35;20488;-73
2021/05/22 09:43:38;;;;;;;1.55;1.20;;;;;;;8.84;70.13;99014.50;8016239;35;20529;-72
2021/05/22 09:48:41;;;;;;;1.05;1.05;;;;;;;8.84;71.19;99003.78;8029310;35;20195;-73
2021/05/22 09:53:44;;;;;;;1.67;1.23;;;;;;;8.64;72.27;99021.75;8037611;35;20452;-74
2021/05/22 09:58:49;;;;;;;1.60;0.90;;;;;;;8.43;72.86;99067.41;8044275;35;20494;-74
2021/05/22 10:03:53;;;;;;;1.20;1.10;;;;;;;8.73;72.71;99026.22;8026116;35;20145;-74
2021/05/22 10:09:10;;;;;;;0.82;0.82;;;;;;;8.76;73.28;99023.25;8067835;35;21932;-74
2021/05/22 10:14:14;;;;;;;2.00;1.00;;;;;;;8.66;72.67;99054.56;8068349;35;20463;-74
2021/05/22 10:19:19;;;;;;;1.08;1.00;;;;;;;8.65;73.86;99034.16;8039293;35;20202;-74
2021/05/22 10:24:22;;;;;;;2.15;0.98;;;;;;;8.43;74.14;99042.47;8022543;35;20183;-74
2021/05/22 10:29:29;;;;;;;1.27;1.17;;;;;;;8.76;73.77;99041.16;7998128;35;20446;-72
2021/05/22 10:34:37;;;;;;;1.10;1.00;;;;;;;8.75;73.93;99058.19;8000562;35;20156;-74
2021/05/22 10:39:42;;;;;;;1.52;1.13;;;;;;;8.52;74.63;99060.38;8006044;35;21180;-74
2021/05/22 10:44:44;;;;;;;4.18;1.50;;;;;;;8.54;74.19;99048.53;8006818;35;20151;-72
2021/05/22 10:49:54;;;;;;;2.45;2.10;;;;;;;8.83;73.30;99058.31;8013725;35;20944;-74
2021/05/22 10:55:04;;;;;;;4.30;1.67;;;;;;;8.91;72.92;99054.91;8021781;35;20545;-73
2021/05/22 11:00:24;;;;;;;1.90;1.50;;;;;;;8.89;72.34;99056.91;8020733;35;20971;-73
2021/05/22 11:05:39;;;;;;;1.17;1.08;;;;;;;8.65;73.24;99076.97;8029298;35;20736;-73
2021/05/22 11:10:44;;;;;;;1.27;1.20;;;;;;;8.75;74.63;99075.13;8032191;35;20203;-73
2021/05/22 11:15:51;;;;;;;3.35;1.52;;;;;;;8.70;74.31;99080.06;8019208;35;20705;-73
2021/05/22 11:21:20;;;;;;;2.00;1.40;;;;;;;8.29;74.19;99107.97;8011996;35;20403;-73
2021/05/22 11:27:05;;;;;;;3.30;1.75;;;;;;;8.76;74.46;99090.19;8005300;35;20521;-73
2021/05/22 11:32:54;;;;;;;2.05;1.85;;;;;;;9.20;74.82;99098.53;8007200;35;20431;-73
2021/05/22 11:37:59;;;;;;;4.15;2.63;;;;;;;9.14;75.58;99104.47;8006528;35;20152;-73
2021/05/22 11:43:29;;;;;;;2.60;2.08;;;;;;;8.90;75.00;99117.50;7956450;36;20137;-76
2021/05/22 11:48:34;;;;;;;5.03;1.38;;;;;;;8.64;76.51;99111.91;7956699;36;20209;-74
2021/05/22 11:53:40;;;;;;;3.47;2.00;;;;;;;8.81;77.49;99108.50;7962347;36;20149;-74
2021/05/22 11:58:47;;;;;;;4.10;2.20;;;;;;;8.45;79.16;99116.28;7967728;36;20449;-74
2021/05/22 12:03:51;;;;;;;2.33;2.13;;;;;;;8.36;79.93;99123.31;7969188;36;20184;-74
2021/05/22 12:09:15;;;;;;;4.75;2.53;;;;;;;8.75;79.33;99114.41;7971709;36;20160;-74
2021/05/22 12:14:17;;;;;;;5.78;2.67;;;;;;;8.46;80.10;99120.66;7975532;35;20228;-74
2021/05/22 12:19:21;;;;;;;3.78;3.00;;;;;;;8.91;80.33;99125.38;8073143;35;20542;-74
2021/05/22 12:24:24;;;;;;;3.25;1.92;;;;;;;8.88;78.73;99138.22;8077194;35;20712;-74
2021/05/22 12:29:29;;;;;;;5.63;2.95;;;;;;;8.90;78.46;99128.22;8055668;35;21058;-74
2021/05/22 12:34:34;;;;;;;3.88;2.70;;;;;;;8.81;79.02;99140.66;8023723;35;21085;-74
2021/05/22 12:39:40;;;;;;;3.70;3.15;;;;;;;9.04;80.86;99142.00;8005448;35;20144;-74
2021/05/22 12:44:42;;;;;;;4.28;2.95;;;;;;;9.32;78.63;99127.81;8003567;35;20212;-73
2021/05/22 12:49:57;;;;;;;4.18;2.55;;;;;;;10.13;77.79;99134.19;7999423;35;20464;-73
2021/05/22 12:55:00;;;;;;;2.33;2.05;;;;;;;9.89;76.26;99150.00;8023985;35;20186;-73
2021/05/22 13:00:15;;;;;;;2.70;2.13;;;;;;;9.91;75.65;99164.97;8019721;35;20475;-73
2021/05/22 13:05:25;;;;;;;2.30;2.03;;;;;;;9.66;76.17;99138.81;7980123;35;20202;-73
2021/05/22 13:10:30;;;;;;;3.00;2.22;;;;;;;9.63;77.50;99164.09;8019377;35;20166;-73
2021/05/22 13:15:37;;;;;;;3.28;2.30;;;;;;;9.29;78.86;99161.09;8047883;35;20463;-74
2021/05/22 13:20:42;;;;;;;2.28;1.63;;;;;;;9.40;78.93;99160.09;8049808;35;21558;-74
2021/05/22 13:25:48;;;;;;;2.70;2.45;;;;;;;9.39;79.07;99180.69;8052581;35;20456;-74
2021/05/22 13:31:09;;;;;;;2.38;2.17;;;;;;;9.02;79.31;99184.16;8021122;35;20236;-73
2021/05/22 13:36:13;;;;;;;2.50;2.30;;;;;;;9.46;78.85;99189.84;7995311;35;20864;-74
2021/05/22 13:41:30;;;;;;;4.43;2.67;;;;;;;9.45;78.37;99184.63;7997314;35;20454;-74
2021/05/22 13:46:34;;;;;;;5.13;3.40;;;;;;;9.43;79.00;99178.53;7996948;35;20152;-74
2021/05/22 13:51:38;;;;;;;3.30;2.28;;;;;;;9.43;79.37;99181.22;7995604;35;20568;-73
2021/05/22 13:56:42;;;;;;;3.88;3.10;;;;;;;9.49;78.37;99189.53;7992722;35;20447;-74
2021/05/22 14:01:47;;;;;;;5.22;2.88;;;;;;;9.81;78.33;99211.56;7996065;35;20244;-74
2021/05/22 14:06:49;;;;;;;4.40;2.80;;;;;;;9.60;78.52;99193.00;8003449;35;21578;-74
2021/05/22 14:11:53;;;;;;;5.20;3.10;;;;;;;9.87;78.54;99194.91;8027353;35;20449;-73
2021/05/22 14:16:56;;;;;;;6.88;2.63;;;;;;;9.43;78.61;99208.88;8030941;35;20467;-73
2021/05/22 14:21:58;;;;;;;7.00;2.40;;;;;;;9.44;78.97;99207.06;8010306;35;21462;-73
2021/05/22 14:27:02;;;;;;;2.78;2.25;;;;;;;9.42;79.47;99231.31;8010149;35;20551;-74
2021/05/22 14:32:06;;;;;;;2.50;2.30;;;;;;;9.14;79.81;99278.59;8006788;35;20479;-74
2021/05/22 14:37:09;;;;;;;6.28;3.00;;;;;;;9.06;79.92;99223.06;8004591;35;20470;-74
2021/05/22 14:42:13;;;;;;;8.95;3.78;;;;;;;8.98;80.71;99232.81;8005554;35;20559;-74
2021/05/22 14:47:16;;;;;;;5.28;3.60;;;;;;;9.16;80.45;99235.59;8000730;35;20235;-74
2021/05/22 14:52:18;;;;;;;4.60;2.67;;;;;;;8.99;80.67;99243.34;8003783;35;20290;-74
2021/05/22 14:57:22;;;;;;;4.55;3.42;;;;;;;9.26;80.81;99276.63;8003601;35;20459;-74
2021/05/22 15:02:26;;;;;;;4.32;3.28;;;;;;;9.17;80.52;99270.28;8024210;35;20526;-74
2021/05/22 15:07:29;;;;;;;6.45;3.20;;;;;;;9.08;80.79;99262.25;8020047;35;21006;-73
2021/05/22 15:12:33;;;;;;;6.40;3.95;;;;;;;9.15;81.12;99261.53;7995097;35;20453;-74
2021/05/22 15:17:35;;;;;;;6.32;3.88;;;;;;;9.08;81.08;99272.97;7991189;35;20624;-73
2021/05/22 15:22:38;;;;;;;6.40;3.53;;;;;;;8.68;81.90;99273.94;7999695;35;20941;-74
2021/05/22 15:27:42;;;;;;;8.18;4.45;;;;;;;8.66;82.34;99271.41;8002231;35;21997;-74
2021/05/22 15:32:45;;;;;;;7.03;5.38;;;;;;;8.71;83.16;99273.66;8006120;35;20484;-74
2021/05/22 15:37:48;;;;;;;8.15;4.93;;;;;;;8.87;83.27;99298.06;8020339;35;20206;-74
2021/05/22 15:42:52;;;;;;;4.40;3.78;;;;;;;8.56;84.62;99308.88;8014922;35;20199;-73
2021/05/22 15:48:31;;;;;;;5.38;4.07;;;;;;;8.78;83.70;99313.13;8006495;35;20467;-73
2021/05/22 15:58:56;;;;;;;6.18;4.32;;;;;;;8.87;82.64;99326.69;8070723;35;20167;-74
2021/05/22 16:04:20;;;;;;;5.85;4.65;;;;;;;9.03;82.85;99321.63;8048921;35;20978;-73
2021/05/22 16:09:22;;;;;;;7.38;6.22;;;;;;;9.02;83.12;99326.13;8064834;35;20150;-73
2021/05/22 16:14:26;;;;;;;5.90;5.30;;;;;;;9.14;82.00;99340.22;8056793;35;20568;-73
2021/05/22 16:19:29;;;;;;;7.50;3.83;;;;;;;8.96;82.65;99334.72;8055561;35;21023;-73
2021/05/22 16:24:31;;;;;;;8.18;5.07;;;;;;;8.85;82.39;99345.53;8055367;35;20151;-73
2021/05/22 16:29:36;;;;;;;6.90;5.75;;;;;;;9.08;82.12;99348.84;8065343;35;20483;-72
2021/05/22 16:34:39;;;;;;;7.68;6.03;;;;;;;9.20;80.92;99363.78;8069425;35;20639;-71
2021/05/22 16:39:42;;;;;;;5.03;3.88;;;;;;;9.25;80.93;99353.47;8069978;35;21079;-72
2021/05/22 16:44:45;;;;;;;6.22;4.63;;;;;;;9.51;79.80;99358.25;8063716;35;20147;-72
2021/05/22 16:49:48;;;;;;;6.05;5.07;;;;;;;9.56;79.86;99355.16;8069186;35;21114;-72
2021/05/22 16:54:50;;;;;;;7.35;4.75;;;;;;;9.54;78.83;99376.75;8053894;35;20195;-72
2021/05/22 16:59:54;;;;;;;6.82;4.20;;;;;;;9.32;78.98;99382.38;8027745;35;20983;-72
2021/05/22 17:04:56;;;;;;;7.30;5.00;;;;;;;9.45;79.12;99391.00;8038133;35;21549;-72
2021/05/22 17:09:59;;;;;;;5.40;4.22;;;;;;;9.30;78.14;99406.66;8033241;35;20983;-72
2021/05/22 17:15:05;;;;;;;6.28;3.97;;;;;;;9.28;77.82;99411.31;8003833;35;20454;-73
2021/05/22 17:20:10;;;;;;;5.47;4.45;;;;;;;9.23;78.19;99417.09;8004892;35;20786;-72
2021/05/22 17:25:14;;;;;;;4.90;3.70;;;;;;;10.06;75.43;99412.13;8029647;35;20155;-72
2021/05/22 17:30:21;;;;;;;6.30;4.43;;;;;;;9.97;75.61;99439.00;8022812;35;20226;-73
2021/05/22 17:35:25;;;;;;;8.77;4.82;;;;;;;9.54;76.40;99429.50;8003195;35;20437;-73
2021/05/22 17:40:28;;;;;;;6.85;4.80;;;;;;;9.46;76.80;99439.13;8022479;35;20194;-71
2021/05/22 17:45:32;;;;;;;21.35;4.93;;;;;;;9.20;77.27;99452.19;8057330;35;21000;-72
2021/05/22 17:50:36;;;;;;;8.88;4.43;;;;;;;9.00;76.64;99466.53;8032028;35;21774;-71
2021/05/22 17:55:44;;;;;;;11.45;6.55;;;;;;;9.13;76.73;99460.91;8015469;35;21118;-71
2021/05/22 18:00:48;;;;;;;9.05;6.28;;;;;;;9.14;77.42;99486.75;8057707;35;21374;-71
2021/05/22 18:05:51;;;;;;;10.18;5.75;;;;;;;9.12;77.54;99480.66;8057430;35;20462;-71
2021/05/22 18:10:54;;;;;;;9.80;6.13;;;;;;;9.14;77.37;99482.22;8036250;35;20155;-72
2021/05/22 18:15:57;;;;;;;10.60;6.93;;;;;;;9.25;77.21;99479.44;8055398;35;20271;-71
2021/05/22 18:21:00;;;;;;;10.60;7.13;;;;;;;9.10;76.97;99494.19;8030963;35;21113;-72
2021/05/22 18:26:04;;;;;;;14.07;6.07;;;;;;;9.61;75.80;99495.00;8052818;35;20254;-72
2021/05/22 18:31:08;;;;;;;12.82;6.97;;;;;;;9.55;76.60;99501.78;8054062;35;21964;-73
2021/05/22 18:36:12;;;;;;;9.88;6.80;;;;;;;9.47;76.05;99512.34;8048432;35;20491;-72
2021/05/22 18:41:14;;;;;;;10.77;6.65;;;;;;;9.35;77.08;99518.78;8049305;35;20140;-73
2021/05/22 18:46:19;;;;;;;16.20;7.80;;;;;;;9.65;76.68;99518.72;8055025;35;20975;-74
2021/05/22 18:51:22;;;;;;;10.80;6.88;;;;;;;9.53;76.52;99521.66;8050926;35;20744;-72
2021/05/22 18:56:26;;;;;;;12.32;7.20;;;;;;;9.45;76.44;99522.34;8041594;35;20431;-73
2021/05/22 19:01:30;;;;;;;12.63;7.00;;;;;;;9.33;75.89;99540.38;8036069;35;20159;-73
2021/05/22 19:06:32;;;;;;;14.45;8.23;;;;;;;9.22;76.41;99551.22;8017070;35;20341;-72
2021/05/22 19:11:35;;;;;;;12.37;8.33;;;;;;;9.42;76.65;99558.31;8025433;35;21171;-73
2021/05/22 19:16:39;;;;;;;13.30;8.35;;;;;;;9.28;76.77;99540.78;8025645;35;21428;-73
2021/05/22 19:21:41;;;;;;;14.75;8.23;;;;;;;9.17;77.44;99551.59;8002239;35;20148;-72
2021/05/22 19:26:45;;;;;;;13.48;8.05;;;;;;;9.09;77.24;99570.19;7997566;35;20448;-73
2021/05/22 19:31:48;;;;;;;13.00;9.30;;;;;;;9.11;77.02;99576.28;8006112;35;20239;-72
2021/05/22 19:36:51;;;;;;;12.52;8.52;;;;;;;9.24;77.20;99578.69;8046732;35;20549;-72
2021/05/22 19:41:54;;;;;;;13.23;9.65;;;;;;;9.30;77.30;99599.63;8059101;35;20282;-72
2021/05/22 19:46:57;;;;;;;13.40;9.68;;;;;;;9.14;77.61;99591.22;8054869;35;20328;-72
2021/05/22 19:52:00;;;;;;;12.15;8.40;;;;;;;9.10;77.15;99590.63;8053561;35;20536;-73
2021/05/22 19:57:05;;;;;;;16.88;11.02;;;;;;;9.10;77.88;99606.69;8053876;35;21830;-73
2021/05/22 20:02:09;;;;;;;20.13;14.47;;;;;;;8.89;78.80;99617.47;8053412;35;20417;-73
2021/05/22 20:07:11;;;;;;;18.95;11.73;;;;;;;9.00;78.51;99616.56;8053859;35;20668;-73
2021/05/22 20:12:14;;;;;;;17.48;11.93;;;;;;;9.02;78.29;99615.44;8052680;35;20552;-73
2021/05/22 20:17:17;;;;;;;16.70;11.70;;;;;;;9.09;78.30;99622.94;8051708;35;20197;-73
2021/05/22 20:22:20;;;;;;;18.23;12.18;;;;;;;8.98;78.36;99629.22;8027504;35;20553;-73
2021/05/22 20:27:24;;;;;;;20.52;12.13;;;;;;;9.02;78.20;99642.22;8049680;35;21034;-74
2021/05/22 20:32:28;;;;;;;24.20;13.23;;;;;;;9.10;77.84;99635.34;8053900;35;20475;-73
2021/05/22 20:37:32;;;;;;;18.08;12.48;;;;;;;9.09;78.24;99631.81;8051828;35;20470;-73
2021/05/22 20:42:34;;;;;;;19.80;12.00;;;;;;;9.18;78.11;99640.88;8052813;35;20190;-74
2021/05/22 20:47:39;;;;;;;16.00;10.98;;;;;;;8.92;78.50;99638.63;8033982;35;20555;-73
2021/05/22 20:52:43;;;;;;;18.58;11.43;;;;;;;9.08;78.35;99645.31;8055861;35;21501;-72
2021/05/22 20:57:46;;;;;;;14.63;10.00;;;;;;;9.24;77.97;99653.72;8033165;35;20195;-71
2021/05/22 21:02:49;;;;;;;14.35;9.77;;;;;;;9.21;77.94;99656.69;8052754;35;20183;-72
2021/05/22 21:07:54;;;;;;;15.15;10.30;;;;;;;9.22;77.60;99653.88;8051990;35;20452;-74
2021/05/22 21:12:58;;;;;;;15.00;9.25;;;;;;;9.20;77.59;99660.34;8050788;35;20451;-74
2021/05/22 21:18:03;;;;;;;17.38;10.20;;;;;;;9.17;76.81;99666.00;8034163;35;21187;-74
2021/05/22 21:23:06;;;;;;;13.70;10.02;;;;;;;9.14;77.35;99658.22;8003230;35;20160;-74
2021/05/22 21:28:09;;;;;;;12.93;8.75;;;;;;;9.39;76.59;99662.28;8005029;35;21078;-74
2021/05/22 21:33:12;;;;;;;12.48;8.27;;;;;;;9.25;76.31;99656.28;8004428;35;20548;-74
2021/05/22 21:38:15;;;;;;;9.82;6.80;;;;;;;9.09;76.58;99671.16;8011369;35;20504;-74
2021/05/22 21:43:18;;;;;;;7.78;6.22;;;;;;;9.25;76.37;99664.34;8005974;35;20488;-74
2021/05/22 21:48:21;;;;;;;8.90;6.38;;;;;;;9.21;76.60;99665.56;8011328;35;20219;-74
2021/05/22 21:53:24;;;;;;;7.97;6.07;;;;;;;9.03;77.10;99665.34;8009980;35;20488;-73
2021/05/22 21:58:27;;;;;;;9.43;6.03;;;;;;;9.16;76.63;99672.31;8020427;35;20479;-73
2021/05/22 22:03:33;;;;;;;7.78;6.32;;;;;;;9.01;77.24;99682.53;8027316;35;20184;-73
2021/05/22 22:08:35;;;;;;;10.00;6.80;;;;;;;9.05;77.01;99668.75;8069536;35;20190;-73
2021/05/22 22:13:42;;;;;;;9.32;6.32;;;;;;;9.03;76.96;99676.06;8069265;35;20151;-73
2021/05/22 22:18:47;;;;;;;10.07;7.75;;;;;;;8.73;78.54;99679.53;8068120;35;20159;-73
2021/05/22 22:23:55;;;;;;;10.10;6.88;;;;;;;8.70;79.41;99679.78;8070304;35;20265;-73
2021/05/22 22:28:59;;;;;;;9.63;6.35;;;;;;;8.53;80.19;99675.84;8073865;35;20225;-73
2021/05/22 22:34:05;;;;;;;10.63;7.50;;;;;;;8.53;80.03;99672.28;8074378;35;20561;-73
2021/05/22 22:39:07;;;;;;;11.30;6.78;;;;;;;8.52;80.77;99676.81;8077886;35;20206;-73
2021/05/22 22:44:10;;;;;;;10.27;6.68;;;;;;;8.34;80.81;99675.66;8074335;35;20275;-73
2021/05/22 22:49:14;;;;;;;13.38;7.13;;;;;;;8.49;80.51;99681.56;8051301;35;21072;-73
2021/05/22 22:54:16;;;;;;;9.60;6.97;;;;;;;8.56;80.72;99675.59;8071475;35;20159;-74
2021/05/22 22:59:26;;;;;;;9.30;6.68;;;;;;;8.40;80.27;99680.50;8072441;35;20210;-75
2021/05/22 23:04:29;;;;;;;8.40;5.20;;;;;;;8.34;80.04;99686.34;8072224;35;20135;-73
2021/05/22 23:09:32;;;;;;;14.27;7.22;;;;;;;8.36;81.02;99671.00;8074903;35;20460;-73
2021/05/22 23:14:35;;;;;;;10.27;7.25;;;;;;;8.18;81.76;99679.59;8076326;35;20191;-73
2021/05/22 23:19:38;;;;;;;12.65;7.35;;;;;;;8.50;80.94;99672.56;8075944;35;20570;-73
2021/05/22 23:24:41;;;;;;;13.40;8.07;;;;;;;8.17;81.87;99688.59;8074599;35;20170;-73
2021/05/22 23:29:44;;;;;;;13.95;8.68;;;;;;;8.44;81.60;99676.56;8069949;35;20559;-73
2021/05/22 23:34:47;;;;;;;14.98;8.07;;;;;;;8.24;81.94;99688.09;8058990;35;20170;-73
2021/05/22 23:39:50;;;;;;;16.17;7.95;;;;;;;8.45;81.53;99688.13;8057844;35;20436;-73
2021/05/22 23:44:53;;;;;;;16.23;7.93;;;;;;;8.29;82.07;99692.09;8036004;35;20555;-73
2021/05/22 23:49:59;;;;;;;19.42;8.88;;;;;;;8.16;82.41;99694.91;8060620;35;20483;-73
2021/05/22 23:55:10;;;;;;;14.27;8.48;;;;;;;8.17;82.65;99685.03;8069818;35;20178;-73
